Time;durP1;ratioP1;P1;durP2;ratioP2;P2;SDS_P1;SDS_P2;PMS_P1;PMS_P2;Temp;Humidity;BMP_temperature;BMP_pressure;BME280_temperature;BME280_humidity;BME280_pressure;Samples;Min_cycle;Max_cycle;Signal;HPM_P1;HPM_P2
2022/04/23 00:01:44;;;;;;;11.63;6.28;;;;;;;10.12;74.01;99086.28;5119001;28;20055;-83
2022/04/23 00:04:11;;;;;;;10.82;6.10;;;;;;;10.01;74.27;99088.75;5118239;28;20043;-84
2022/04/23 00:06:38;;;;;;;11.50;6.07;;;;;;;10.01;74.77;99091.44;5119632;28;20031;-84
2022/04/23 00:09:04;;;;;;;11.50;6.28;;;;;;;10.06;74.42;99096.09;5118600;28;20054;-84
2022/04/23 00:11:30;;;;;;;15.63;6.78;;;;;;;10.08;74.65;99094.00;5100858;28;20458;-84
2022/04/23 00:13:55;;;;;;;10.98;5.85;;;;;;;10.12;74.13;99099.75;5118182;28;20043;-85
2022/04/23 00:16:24;;;;;;;12.93;6.75;;;;;;;10.01;75.25;99107.59;5118276;28;20024;-84
2022/04/23 00:18:51;;;;;;;14.70;6.38;;;;;;;10.06;74.23;99102.31;5099883;28;20038;-82
2022/04/23 00:21:18;;;;;;;11.32;6.45;;;;;;;9.94;74.85;99101.50;5099487;28;20477;-83
2022/04/23 00:23:46;;;;;;;14.48;6.60;;;;;;;9.93;75.94;99099.03;5118624;28;20039;-84
2022/04/23 00:26:12;;;;;;;13.60;6.13;;;;;;;9.92;75.67;99095.53;5119487;28;20490;-84
2022/04/23 00:28:37;;;;;;;11.00;6.57;;;;;;;9.97;76.08;99097.53;5102451;28;20068;-83
2022/04/23 00:31:04;;;;;;;13.70;6.37;;;;;;;9.91;75.79;99104.66;5101708;28;20430;-84
2022/04/23 00:33:29;;;;;;;11.15;6.50;;;;;;;9.90;76.44;99100.31;5102494;28;20300;-84
2022/04/23 00:35:55;;;;;;;11.90;6.30;;;;;;;9.84;76.62;99092.38;5120352;28;20047;-82
2022/04/23 00:38:20;;;;;;;12.60;7.03;;;;;;;9.81;76.67;99092.81;5103822;28;20027;-84
2022/04/23 00:40:46;;;;;;;12.13;6.68;;;;;;;9.93;76.17;99096.34;5123785;28;20260;-83
2022/04/23 00:43:28;;;;;;;12.30;6.53;;;;;;;9.87;76.72;99098.09;5127661;28;20499;-83
2022/04/23 00:45:55;;;;;;;13.80;6.35;;;;;;;9.81;77.37;99100.91;5130224;28;20047;-86
2022/04/23 00:48:21;;;;;;;13.60;6.65;;;;;;;9.83;76.90;99096.09;5107519;28;20028;-83
2022/04/23 00:50:48;;;;;;;;;;;;;;;9.78;76.87;99101.34;5120616;28;20530;-82
2022/04/23 00:53:14;;;;;;;13.45;6.45;;;;;;;9.83;76.73;99098.81;5119727;28;19937;-83
2022/04/23 00:55:39;;;;;;;11.80;5.85;;;;;;;9.81;77.14;99096.34;5119445;28;20032;-83
2022/04/23 00:58:05;;;;;;;13.30;6.95;;;;;;;9.79;77.29;99089.56;5100509;28;20039;-83
2022/04/23 01:00:30;;;;;;;12.50;6.45;;;;;;;9.82;77.22;99091.78;5119445;28;20038;-81
2022/04/23 01:02:56;;;;;;;12.83;6.73;;;;;;;9.76;77.53;99093.53;5117944;28;20027;-83
2022/04/23 01:05:26;;;;;;;14.30;6.65;;;;;;;9.70;77.64;99097.94;5117916;28;20027;-82
2022/04/23 01:07:52;;;;;;;13.90;6.55;;;;;;;9.72;77.63;99093.16;5100373;28;20027;-81
2022/04/23 01:10:17;;;;;;;;;;;;;;;9.74;77.39;99101.81;5117340;28;20031;-81
2022/04/23 01:12:46;;;;;;;14.82;6.50;;;;;;;9.73;77.57;99107.44;5099719;28;19933;-82
2022/04/23 01:15:16;;;;;;;13.32;6.65;;;;;;;9.71;77.82;99104.97;5116739;28;20413;-82
2022/04/23 01:17:42;;;;;;;14.07;6.25;;;;;;;9.71;77.96;99093.38;5117464;28;20359;-81
2022/04/23 01:20:14;;;;;;;;;;;;;;;9.71;78.41;99101.44;5117586;28;20034;-81
2022/04/23 01:22:44;;;;;;;12.43;6.43;;;;;;;9.70;78.53;99103.31;5117066;28;19955;-82
2022/04/23 01:25:14;;;;;;;13.65;6.88;;;;;;;9.68;78.53;99108.13;5098210;28;20476;-81
2022/04/23 01:27:40;;;;;;;14.02;6.50;;;;;;;9.64;78.66;99106.13;5116561;28;20035;-81
2022/04/23 01:30:08;;;;;;;14.73;7.55;;;;;;;9.57;79.26;99108.09;5116255;28;20035;-80
2022/04/23 01:32:34;;;;;;;11.40;6.50;;;;;;;9.57;79.93;99106.22;5116054;28;20028;-81
2022/04/23 01:34:59;;;;;;;15.23;7.78;;;;;;;9.59;79.96;99104.13;5116062;28;20031;-82
2022/04/23 01:37:25;;;;;;;15.68;7.63;;;;;;;9.51;80.37;99106.31;5116794;28;20042;-82
2022/04/23 01:39:51;;;;;;;15.23;6.95;;;;;;;9.54;80.34;99105.88;5116384;28;20031;-82
2022/04/23 01:42:18;;;;;;;18.05;7.50;;;;;;;9.60;79.98;99097.69;5117046;28;20035;-81
2022/04/23 01:44:50;;;;;;;17.38;8.38;;;;;;;9.61;80.44;99098.53;5115960;28;20039;-80
2022/04/23 01:47:16;;;;;;;25.95;8.77;;;;;;;9.64;80.52;99095.38;5098245;28;20031;-81
2022/04/23 01:49:44;;;;;;;17.45;8.40;;;;;;;9.60;81.16;99099.56;5098533;28;20564;-81
2022/04/23 01:52:11;;;;;;;18.30;8.93;;;;;;;9.63;80.51;99093.75;5116075;28;20047;-80
2022/04/23 01:54:36;;;;;;;20.70;10.13;;;;;;;9.68;80.67;99091.16;5118189;28;20450;-81
2022/04/23 01:57:02;;;;;;;17.88;9.38;;;;;;;9.58;81.56;99096.28;5117944;28;20074;-81
2022/04/23 01:59:28;;;;;;;21.13;9.85;;;;;;;9.60;81.46;99089.63;5099862;28;20103;-83
2022/04/23 02:01:53;;;;;;;17.85;9.80;;;;;;;9.66;80.88;99091.41;5120990;28;20067;-80
2022/04/23 02:04:19;;;;;;;18.23;9.93;;;;;;;9.68;80.87;99099.22;5118553;28;20039;-82
2022/04/23 02:06:45;;;;;;;20.85;10.60;;;;;;;9.61;81.09;99104.72;5117496;28;20274;-81
2022/04/23 02:09:11;;;;;;;19.73;10.30;;;;;;;9.57;81.45;99100.84;5117611;28;20161;-82
2022/04/23 02:11:36;;;;;;;21.35;11.52;;;;;;;9.55;81.67;99105.63;5117322;28;20051;-81
2022/04/23 02:14:02;;;;;;;19.53;11.23;;;;;;;9.60;81.32;99108.47;5116562;28;20034;-81
2022/04/23 02:16:32;;;;;;;22.60;10.82;;;;;;;9.58;80.97;99107.03;5116860;28;20253;-84
2022/04/23 02:18:58;;;;;;;23.02;10.77;;;;;;;9.64;80.73;99106.97;5117121;28;20031;-80
2022/04/23 02:21:27;;;;;;;20.15;10.32;;;;;;;9.57;81.23;99110.78;5100170;28;20046;-80
2022/04/23 02:23:53;;;;;;;22.35;11.32;;;;;;;9.53;81.67;99101.53;5121070;28;20359;-82
2022/04/23 02:26:20;;;;;;;19.50;9.95;;;;;;;9.48;81.25;99107.63;5101290;28;20034;-82
2022/04/23 02:28:52;;;;;;;25.38;11.02;;;;;;;9.49;81.69;99103.06;5119679;28;20134;-82
2022/04/23 02:31:17;;;;;;;20.90;10.45;;;;;;;9.53;81.42;99112.28;5100972;28;20385;-82
2022/04/23 02:33:44;;;;;;;19.05;9.98;;;;;;;9.50;81.33;99107.38;5119022;28;20023;-82
2022/04/23 02:36:11;;;;;;;22.88;11.13;;;;;;;9.43;81.73;99107.47;5101178;28;20075;-81
2022/04/23 02:38:40;;;;;;;22.05;10.63;;;;;;;9.37;82.13;99108.38;5101441;28;20034;-82
2022/04/23 02:41:09;;;;;;;24.13;11.02;;;;;;;9.42;82.30;99103.16;5119941;28;20114;-82
2022/04/23 02:43:35;;;;;;;22.90;10.15;;;;;;;9.42;81.84;99113.09;5120237;28;20115;-81
2022/04/23 02:46:05;;;;;;;19.42;9.77;;;;;;;9.34;82.12;99112.34;5119872;28;20027;-83
2022/04/23 02:48:33;;;;;;;20.20;10.85;;;;;;;9.47;81.83;99118.59;5119392;28;20381;-82
2022/04/23 02:51:00;;;;;;;19.38;11.35;;;;;;;9.40;82.14;99110.63;5119352;28;20032;-83
2022/04/23 02:53:26;;;;;;;17.58;9.50;;;;;;;9.33;82.57;99121.47;5101333;28;20085;-82
2022/04/23 02:55:56;;;;;;;21.58;10.65;;;;;;;9.35;82.46;99113.16;5119841;28;20027;-81
2022/04/23 02:58:24;;;;;;;19.25;10.50;;;;;;;9.32;82.42;99114.44;5120030;28;20118;-82
2022/04/23 03:00:49;;;;;;;20.88;10.23;;;;;;;9.32;82.42;99109.06;5102080;28;20038;-81
2022/04/23 03:03:15;;;;;;;24.77;10.35;;;;;;;9.22;82.81;99110.69;5100960;28;20051;-81
2022/04/23 03:05:42;;;;;;;19.38;9.70;;;;;;;9.29;82.96;99116.78;5119272;28;20034;-82
2022/04/23 03:08:09;;;;;;;21.83;10.45;;;;;;;9.22;83.28;99114.19;5119197;28;20351;-82
2022/04/23 03:10:35;;;;;;;20.33;10.63;;;;;;;9.28;82.73;99107.91;5119765;28;20069;-82
2022/04/23 03:13:00;;;;;;;20.00;10.73;;;;;;;9.20;83.37;99108.22;5118509;28;20035;-82
2022/04/23 03:15:27;;;;;;;19.83;10.30;;;;;;;9.18;83.40;99107.63;5118479;28;20032;-82
2022/04/23 03:18:12;;;;;;;18.52;10.02;;;;;;;9.18;83.05;99107.63;5118709;28;20027;-82
2022/04/23 03:20:39;;;;;;;21.20;10.52;;;;;;;9.20;83.17;99110.09;5117805;28;20057;-82
2022/04/23 03:23:05;;;;;;;21.63;11.15;;;;;;;9.12;83.32;99102.34;5118998;28;20043;-82
2022/04/23 03:25:34;;;;;;;22.85;10.43;;;;;;;9.11;83.71;99101.53;5118854;28;20102;-82
2022/04/23 03:28:00;;;;;;;20.00;10.38;;;;;;;9.13;83.97;99104.81;5118734;28;20060;-81
2022/04/23 03:30:27;;;;;;;21.55;10.90;;;;;;;9.16;83.75;99092.75;5118753;28;20032;-82
2022/04/23 03:32:53;;;;;;;21.92;10.20;;;;;;;9.19;83.93;99095.81;5099924;28;20059;-81
2022/04/23 03:35:19;;;;;;;23.08;10.18;;;;;;;9.13;83.74;99093.25;5118331;28;20394;-80
2022/04/23 03:37:44;;;;;;;18.88;9.25;;;;;;;9.14;84.07;99094.84;5100052;28;20419;-80
2022/04/23 03:40:11;;;;;;;24.42;11.27;;;;;;;9.16;83.91;99096.28;5099625;28;20088;-79
2022/04/23 03:42:38;;;;;;;20.08;9.82;;;;;;;9.20;83.79;99091.28;5099749;28;20024;-80
2022/04/23 03:45:04;;;;;;;17.67;9.07;;;;;;;9.22;83.87;99094.56;5118276;28;20046;-81
2022/04/23 03:47:31;;;;;;;20.70;10.30;;;;;;;9.24;83.88;99092.47;5118040;28;20076;-80
2022/04/23 03:49:57;;;;;;;21.23;11.02;;;;;;;9.17;83.97;99092.53;5117758;28;20470;-80
2022/04/23 03:52:23;;;;;;;22.65;10.80;;;;;;;9.21;83.89;99084.84;5117896;28;20028;-80
2022/04/23 03:54:48;;;;;;;27.33;11.25;;;;;;;9.21;83.66;99088.34;5118038;28;20031;-79
2022/04/23 03:57:13;;;;;;;20.83;9.83;;;;;;;9.17;84.15;99084.47;5117517;28;20153;-80
2022/04/23 03:59:38;;;;;;;21.03;10.80;;;;;;;9.17;84.02;99083.66;5100560;28;20274;-82
2022/04/23 04:02:05;;;;;;;19.80;9.50;;;;;;;9.16;84.45;99084.69;5118118;28;20039;-80
2022/04/23 04:04:32;;;;;;;20.75;10.45;;;;;;;9.18;83.94;99082.63;5117600;28;20031;-80
2022/04/23 04:06:59;;;;;;;23.98;11.18;;;;;;;9.13;84.41;99086.00;5117745;28;20034;-79
2022/04/23 04:09:25;;;;;;;21.63;11.07;;;;;;;9.06;84.67;99082.56;5117234;28;20035;-80
2022/04/23 04:12:02;;;;;;;22.55;10.02;;;;;;;9.16;84.44;99079.34;5116880;28;20070;-80
2022/04/23 04:14:28;;;;;;;19.77;10.02;;;;;;;9.16;84.33;99087.38;5116963;28;20092;-80
2022/04/23 04:16:54;;;;;;;25.05;11.02;;;;;;;9.22;83.64;99076.56;5098958;28;20027;-79
2022/04/23 04:19:19;;;;;;;24.40;10.50;;;;;;;9.18;84.43;99088.81;5116736;28;20096;-80
2022/04/23 04:21:46;;;;;;;21.63;10.95;;;;;;;9.16;84.00;99065.91;5098872;28;20031;-80
2022/04/23 04:24:13;;;;;;;23.58;10.50;;;;;;;9.11;84.02;99076.53;5098948;28;20028;-80
2022/04/23 04:26:43;;;;;;;19.05;9.50;;;;;;;9.19;84.17;99074.31;5117163;28;20377;-79
2022/04/23 04:29:09;;;;;;;20.85;10.15;;;;;;;9.19;83.82;99071.63;5117259;28;20047;-79
2022/04/23 04:31:49;;;;;;;25.10;10.88;;;;;;;9.22;83.58;99076.56;5118009;28;20039;-80
2022/04/23 04:34:23;;;;;;;20.85;11.10;;;;;;;9.22;83.20;99067.69;5117494;28;20024;-79
2022/04/23 04:36:49;;;;;;;20.02;10.10;;;;;;;9.21;83.67;99066.84;5099018;28;20545;-80
2022/04/23 04:39:15;;;;;;;;;;;;;;;9.29;82.93;99073.78;5117469;28;20031;-79
2022/04/23 04:41:41;;;;;;;22.98;10.05;;;;;;;9.33;82.71;99078.44;5116704;28;19929;-80
2022/04/23 04:44:06;;;;;;;16.98;9.43;;;;;;;9.35;82.85;99075.53;5116410;28;20031;-80
2022/04/23 04:46:35;;;;;;;20.33;10.45;;;;;;;9.33;82.73;99075.75;5116930;28;20501;-82
2022/04/23 04:49:01;;;;;;;22.45;10.10;;;;;;;9.34;82.67;99065.84;5117789;28;20045;-81
2022/04/23 04:51:27;;;;;;;;;;;;;;;9.39;82.48;99066.78;5117596;28;20031;-81
2022/04/23 04:53:53;;;;;;;23.25;10.27;;;;;;;9.30;82.66;99067.38;5117229;28;19930;-80
2022/04/23 04:56:18;;;;;;;20.45;10.60;;;;;;;9.46;82.12;99071.25;5117383;28;20031;-82
2022/04/23 04:58:44;;;;;;;22.50;11.00;;;;;;;9.48;82.09;99074.53;5102360;28;20050;-82
2022/04/23 05:01:10;;;;;;;20.10;10.95;;;;;;;9.36;82.07;99072.63;5130104;28;20115;-84
2022/04/23 05:03:35;;;;;;;22.38;10.32;;;;;;;9.39;82.11;99074.84;5112085;28;20035;-83
2022/04/23 05:06:01;;;;;;;21.63;11.05;;;;;;;9.43;81.91;99074.41;5124224;28;20033;-85
2022/04/23 05:08:26;;;;;;;22.13;10.67;;;;;;;9.48;81.99;99085.28;5103797;28;20035;-85
2022/04/23 05:10:52;;;;;;;24.90;9.40;;;;;;;9.49;81.34;99086.94;5100746;28;20319;-81
2022/04/23 05:13:17;;;;;;;19.02;9.88;;;;;;;9.52;81.33;99073.81;5118356;28;20030;-80
2022/04/23 05:15:44;;;;;;;23.10;10.63;;;;;;;9.59;81.02;99079.94;5118121;28;20032;-79
2022/04/23 05:18:10;;;;;;;20.48;10.45;;;;;;;9.65;80.47;99076.31;5101010;28;20020;-79
2022/04/23 05:20:35;;;;;;;21.52;10.85;;;;;;;9.57;81.15;99071.28;5124830;28;20092;-80
2022/04/23 05:23:01;;;;;;;22.40;10.93;;;;;;;9.57;81.08;99073.13;5128538;28;20382;-80
2022/04/23 05:25:26;;;;;;;21.87;10.87;;;;;;;9.65;80.79;99075.50;5127146;28;20438;-80
2022/04/23 05:27:51;;;;;;;22.77;11.40;;;;;;;9.73;80.42;99077.84;5119413;28;20048;-80
2022/04/23 05:30:16;;;;;;;22.57;11.10;;;;;;;9.75;80.24;99079.25;5116166;28;20077;-80
2022/04/23 05:32:42;;;;;;;20.37;10.23;;;;;;;9.77;80.37;99075.50;5115877;28;20031;-80
2022/04/23 05:35:07;;;;;;;28.53;12.13;;;;;;;9.94;79.57;99071.06;5116276;28;20378;-80
2022/04/23 05:37:32;;;;;;;20.23;10.48;;;;;;;9.86;79.41;99074.91;5115797;28;20027;-81
2022/04/23 05:39:58;;;;;;;20.53;10.00;;;;;;;9.96;78.88;99071.66;5116606;28;20038;-80
2022/04/23 05:42:23;;;;;;;23.80;10.17;;;;;;;10.05;78.71;99071.06;5098374;28;20470;-82
2022/04/23 05:44:48;;;;;;;19.53;9.83;;;;;;;10.04;78.80;99066.72;5116303;28;20102;-81
2022/04/23 05:47:14;;;;;;;24.57;10.77;;;;;;;10.03;78.16;99072.38;5098267;28;20031;-80
2022/04/23 05:49:39;;;;;;;23.60;11.60;;;;;;;10.09;77.92;99077.63;5117421;28;20077;-80
2022/04/23 05:52:05;;;;;;;18.53;10.27;;;;;;;10.14;77.73;99068.03;5116524;28;20032;-80
2022/04/23 05:54:30;;;;;;;21.48;11.20;;;;;;;10.16;77.06;99076.69;5098363;28;20081;-81
2022/04/23 05:56:56;;;;;;;21.17;11.40;;;;;;;10.19;77.40;99062.81;5120110;28;20421;-81
2022/04/23 05:59:21;;;;;;;23.10;10.87;;;;;;;10.30;76.71;99067.34;5120239;28;20027;-81
2022/04/23 06:01:46;;;;;;;22.73;10.75;;;;;;;10.36;76.98;99064.53;5102085;28;20534;-79
2022/04/23 06:04:12;;;;;;;19.93;10.80;;;;;;;10.36;76.35;99063.72;5121097;28;20020;-79
2022/04/23 06:06:37;;;;;;;24.50;11.50;;;;;;;10.44;75.89;99064.16;5121007;28;20445;-80
2022/04/23 06:09:02;;;;;;;19.90;11.17;;;;;;;10.46;76.51;99072.00;5121207;28;20720;-81
2022/04/23 06:11:28;;;;;;;22.53;10.87;;;;;;;10.58;75.92;99064.72;5119195;28;20023;-77
2022/04/23 06:13:53;;;;;;;21.07;10.53;;;;;;;10.56;75.35;99072.22;5117126;28;20024;-78
2022/04/23 06:16:18;;;;;;;18.90;9.90;;;;;;;10.61;75.49;99066.94;5099301;28;20057;-76
2022/04/23 06:18:43;;;;;;;20.07;10.07;;;;;;;10.61;76.12;99064.22;5117276;28;20027;-77
2022/04/23 06:21:09;;;;;;;21.00;10.87;;;;;;;10.70;75.08;99068.22;5117160;28;20082;-77
2022/04/23 06:23:34;;;;;;;19.80;11.03;;;;;;;10.86;74.36;99061.25;5117658;28;20049;-77
2022/04/23 06:26:00;;;;;;;21.07;10.33;;;;;;;10.91;73.85;99065.94;5116928;28;20103;-77
2022/04/23 06:28:25;;;;;;;19.27;11.02;;;;;;;10.92;73.95;99064.88;5117103;28;20047;-77
2022/04/23 06:30:50;;;;;;;20.97;10.30;;;;;;;11.03;72.73;99064.00;5117012;28;20489;-76
2022/04/23 06:33:17;;;;;;;20.00;10.40;;;;;;;11.08;72.49;99062.22;5117096;28;20027;-76
2022/04/23 06:35:43;;;;;;;19.38;10.00;;;;;;;11.01;73.43;99058.03;5099000;28;20036;-77
2022/04/23 06:38:08;;;;;;;21.88;10.52;;;;;;;11.07;72.61;99062.47;5117493;28;20031;-77
2022/04/23 06:40:34;;;;;;;19.33;9.90;;;;;;;11.18;71.83;99058.88;5117397;28;20093;-77
2022/04/23 06:42:59;;;;;;;;;;;;;;;11.19;71.96;99065.91;5117214;28;20332;-77
2022/04/23 06:45:25;;;;;;;19.80;10.63;;;;;;;11.43;71.32;99062.03;5116588;28;20013;-77
2022/04/23 06:48:06;;;;;;;18.97;10.13;;;;;;;11.99;69.10;99054.88;5116949;28;20022;-78
2022/04/23 06:50:33;;;;;;;18.05;9.73;;;;;;;12.24;68.21;99054.41;5098990;28;20115;-77
2022/04/23 06:53:02;;;;;;;21.23;10.38;;;;;;;12.31;67.58;99059.66;5116639;28;20070;-77
2022/04/23 06:55:28;;;;;;;18.33;9.90;;;;;;;12.78;65.93;99063.50;5116608;28;20038;-77
2022/04/23 06:57:54;;;;;;;18.80;9.38;;;;;;;12.42;66.40;99053.28;5117129;28;20020;-76
2022/04/23 07:00:21;;;;;;;18.40;10.15;;;;;;;12.50;66.34;99060.97;5116611;28;20444;-76
2022/04/23 07:02:46;;;;;;;18.33;10.00;;;;;;;12.36;66.44;99054.31;5116666;28;20107;-76
2022/04/23 07:05:12;;;;;;;19.35;9.73;;;;;;;12.18;66.68;99047.31;5116274;28;20110;-77
2022/04/23 07:07:37;;;;;;;19.00;10.82;;;;;;;12.21;67.29;99056.78;5115872;28;20419;-78
2022/04/23 07:10:03;;;;;;;19.50;10.03;;;;;;;12.19;67.04;99048.94;5116555;28;20043;-76
2022/04/23 07:12:28;;;;;;;20.23;9.75;;;;;;;12.36;66.91;99057.81;5098061;28;20444;-76
2022/04/23 07:14:54;;;;;;;19.53;9.50;;;;;;;12.20;66.74;99058.66;5116531;28;20237;-76
2022/04/23 07:17:26;;;;;;;17.43;9.53;;;;;;;12.41;66.24;99063.28;5116018;28;20110;-76
2022/04/23 07:19:53;;;;;;;18.80;9.35;;;;;;;12.27;66.65;99056.63;5115922;28;20268;-79
2022/04/23 07:22:19;;;;;;;19.38;10.40;;;;;;;12.21;66.36;99045.97;5115825;28;20034;-77
2022/04/23 07:24:45;;;;;;;18.85;10.32;;;;;;;12.36;66.04;99051.63;5097878;28;20111;-76
2022/04/23 07:27:11;;;;;;;21.45;10.52;;;;;;;12.61;66.02;99051.09;5098013;28;20063;-76
2022/04/23 07:29:36;;;;;;;19.17;9.90;;;;;;;12.44;65.81;99054.69;5097873;28;20393;-76
2022/04/23 07:32:02;;;;;;;17.40;9.30;;;;;;;12.63;64.96;99048.97;5115688;28;20031;-76
2022/04/23 07:37:31;;;;;;;17.40;9.15;;;;;;;12.35;65.39;99055.38;5115585;28;20034;-76
2022/04/23 07:40:10;;;;;;;20.25;9.68;;;;;;;12.54;65.16;99054.00;5097639;28;20060;-76
2022/04/23 07:42:36;;;;;;;18.58;9.27;;;;;;;12.73;64.74;99055.31;5115848;28;20145;-78
2022/04/23 07:45:03;;;;;;;18.58;8.95;;;;;;;12.96;63.77;99061.53;5097521;28;20122;-76
2022/04/23 07:47:28;;;;;;;;;;;;;;;12.97;63.83;99061.28;5097725;28;20024;-76
2022/04/23 07:49:53;;;;;;;19.63;9.27;;;;;;;12.84;64.00;99070.59;5097381;28;19989;-76
2022/04/23 07:52:19;;;;;;;16.90;9.02;;;;;;;13.02;63.62;99063.22;5115255;28;20055;-76
2022/04/23 07:54:45;;;;;;;18.05;9.40;;;;;;;13.01;63.07;99065.09;5115374;28;20069;-76
2022/04/23 07:57:11;;;;;;;20.10;9.55;;;;;;;13.25;62.55;99064.84;5115231;28;20023;-77
2022/04/23 07:59:41;;;;;;;;;;;;;;;13.13;62.69;99056.84;5115958;28;20031;-78
2022/04/23 08:02:07;;;;;;;18.25;9.77;;;;;;;13.10;62.52;99060.06;5115318;28;19914;-78
2022/04/23 08:04:32;;;;;;;18.83;9.45;;;;;;;13.16;62.79;99056.38;5115528;28;20031;-76
2022/04/23 08:06:57;;;;;;;20.60;9.88;;;;;;;13.32;62.31;99060.84;5115587;28;20031;-77
2022/04/23 08:09:23;;;;;;;18.83;9.10;;;;;;;13.33;62.69;99062.50;5114963;28;20185;-78
2022/04/23 08:11:48;;;;;;;18.87;10.20;;;;;;;13.23;62.54;99053.47;5115211;28;20269;-77
2022/04/23 08:14:14;;;;;;;18.52;9.85;;;;;;;13.32;62.37;99052.75;5114931;28;20040;-77
2022/04/23 08:16:39;;;;;;;23.15;11.02;;;;;;;13.46;62.19;99050.44;5114887;28;20034;-77
2022/04/23 08:19:05;;;;;;;20.73;9.90;;;;;;;13.58;61.24;99042.16;5114131;28;20068;-76
2022/04/23 08:21:30;;;;;;;20.30;9.68;;;;;;;13.47;61.91;99047.47;5115562;28;20027;-77
2022/04/23 08:23:55;;;;;;;21.90;10.60;;;;;;;13.57;61.68;99032.41;5114884;28;20077;-78
2022/04/23 08:26:21;;;;;;;19.80;10.60;;;;;;;13.57;61.54;99037.81;5114930;28;20254;-77
2022/04/23 08:31:30;;;;;;;19.38;10.13;;;;;;;14.06;60.56;99031.13;5114331;28;20112;-77
2022/04/23 08:33:58;;;;;;;19.80;9.77;;;;;;;13.94;60.50;99038.66;5114261;28;20458;-77
2022/04/23 08:36:29;;;;;;;18.92;9.43;;;;;;;14.03;60.49;99039.78;5096153;28;20028;-76
2022/04/23 08:38:56;;;;;;;19.08;9.65;;;;;;;14.17;60.03;99049.06;5113798;28;20051;-76
2022/04/23 08:41:28;;;;;;;19.20;9.73;;;;;;;14.09;59.85;99033.34;5096314;28;20039;-76
2022/04/23 08:43:55;;;;;;;17.60;9.02;;;;;;;14.24;59.37;99035.31;5114304;28;20110;-77
2022/04/23 08:46:22;;;;;;;17.20;8.80;;;;;;;14.34;58.71;99038.06;5095791;28;20474;-77
2022/04/23 08:48:50;;;;;;;19.50;9.77;;;;;;;14.52;58.21;99032.22;5096197;28;20031;-76
2022/04/23 08:51:20;;;;;;;20.33;9.10;;;;;;;14.46;58.19;99035.19;5114021;28;20469;-77
2022/04/23 08:53:46;;;;;;;18.10;9.55;;;;;;;14.31;58.74;99044.03;5114234;28;20035;-76
2022/04/23 08:56:12;;;;;;;17.50;8.98;;;;;;;14.60;57.90;99033.63;5113963;28;20031;-77
2022/04/23 08:58:39;;;;;;;18.90;10.32;;;;;;;14.45;58.16;99036.28;5114297;28;20028;-76
2022/04/23 09:01:05;;;;;;;19.00;9.48;;;;;;;14.66;57.88;99048.03;5114359;28;20032;-77
2022/04/23 09:03:31;;;;;;;20.95;9.50;;;;;;;14.90;57.25;99039.16;5098517;28;20035;-76
2022/04/23 09:05:56;;;;;;;15.63;8.63;;;;;;;14.70;56.67;99043.69;5113985;28;20038;-76
2022/04/23 09:08:21;;;;;;;;;;;;;;;14.80;57.36;99047.25;5114195;28;20477;-80
2022/04/23 09:10:56;;;;;;;17.63;8.88;;;;;;;14.91;57.43;99038.06;5113939;28;19911;-77
2022/04/23 09:13:29;;;;;;;18.13;8.60;;;;;;;15.00;56.40;99037.56;5095995;28;20027;-76
2022/04/23 09:24:18;;;;;;;18.95;8.93;;;;;;;15.18;55.78;99045.19;5114085;28;20081;-76
2022/04/23 09:27:00;;;;;;;14.90;8.05;;;;;;;15.31;55.89;99041.16;5114384;28;20023;-76
2022/04/23 09:29:27;;;;;;;13.38;6.95;;;;;;;15.51;52.93;99027.59;5113655;28;20086;-77
2022/04/23 09:32:10;;;;;;;17.52;9.00;;;;;;;15.39;54.66;99043.34;5114186;28;20039;-76
2022/04/23 09:34:36;;;;;;;18.48;9.32;;;;;;;15.39;55.75;99044.16;5114033;28;20035;-76
2022/04/23 09:37:02;;;;;;;18.30;9.73;;;;;;;15.68;55.50;99041.75;5113986;28;20030;-76
2022/04/23 09:39:35;;;;;;;19.65;9.75;;;;;;;15.73;55.26;99028.19;5114157;28;20042;-76
2022/04/23 09:42:20;;;;;;;20.65;9.50;;;;;;;15.77;54.85;99029.25;5113966;28;20122;-76
2022/04/23 09:44:47;;;;;;;21.38;10.63;;;;;;;15.32;55.63;99037.34;5095059;28;20042;-82
2022/04/23 09:47:31;;;;;;;19.08;9.82;;;;;;;15.67;55.41;99031.16;5114475;28;20043;-76
2022/04/23 09:49:57;;;;;;;19.85;10.15;;;;;;;15.35;55.87;99032.19;5095991;28;20074;-78
2022/04/23 09:52:28;;;;;;;20.52;9.82;;;;;;;15.79;54.91;99028.97;5096245;28;20442;-77
2022/04/23 09:54:56;;;;;;;20.73;10.05;;;;;;;15.52;55.06;99027.31;5114209;28;20039;-77
2022/04/23 09:57:22;;;;;;;18.65;9.52;;;;;;;15.69;55.08;99037.13;5113651;28;20080;-77
2022/04/23 09:59:51;;;;;;;18.73;8.93;;;;;;;15.94;54.00;99024.34;5098193;28;20028;-77
2022/04/23 10:02:19;;;;;;;16.60;8.43;;;;;;;16.05;53.21;99029.75;5117358;28;20430;-78
2022/04/23 10:04:45;;;;;;;17.58;9.13;;;;;;;15.97;53.32;99036.56;5117122;28;20031;-76
2022/04/23 10:07:11;;;;;;;17.42;8.57;;;;;;;16.01;53.74;99037.66;5115163;28;20477;-78
2022/04/23 10:09:39;;;;;;;15.73;8.63;;;;;;;16.30;53.15;99035.16;5114856;28;20036;-76
2022/04/23 10:12:09;;;;;;;19.50;8.63;;;;;;;16.30;52.63;99038.66;5114870;28;20102;-80
2022/04/23 10:14:56;;;;;;;16.05;8.50;;;;;;;16.09;52.22;99034.38;5096045;28;20088;-78
2022/04/23 10:17:24;;;;;;;16.20;8.23;;;;;;;16.29;51.66;99028.91;5095898;28;20066;-77
2022/04/23 10:19:49;;;;;;;12.52;6.68;;;;;;;16.27;50.34;99033.81;5113718;28;20382;-76
2022/04/23 10:22:22;;;;;;;11.90;6.03;;;;;;;16.45;48.81;99028.84;5113404;28;20032;-77
2022/04/23 10:25:17;;;;;;;9.13;4.70;;;;;;;16.55;47.61;99026.91;5096026;28;20035;-77
2022/04/23 10:27:44;;;;;;;10.20;5.07;;;;;;;16.53;47.34;99033.72;5113854;28;20047;-76
2022/04/23 10:30:10;;;;;;;7.70;4.13;;;;;;;16.04;47.99;99034.38;5113588;28;20034;-77
2022/04/23 10:32:40;;;;;;;9.10;4.55;;;;;;;16.18;47.96;99032.72;5113894;28;20031;-77
2022/04/23 10:35:25;;;;;;;8.73;4.25;;;;;;;16.30;48.09;99014.19;5113294;28;20547;-76
2022/04/23 10:37:51;;;;;;;9.35;4.30;;;;;;;16.39;46.37;99021.78;5113094;28;20035;-76
2022/04/23 10:40:20;;;;;;;7.70;3.53;;;;;;;16.54;46.19;99024.47;5095607;28;20054;-77
2022/04/23 10:43:04;;;;;;;6.95;3.65;;;;;;;16.66;45.38;99017.63;5115226;28;20046;-77
2022/04/23 10:45:33;;;;;;;7.28;3.20;;;;;;;16.84;45.69;99021.63;5117518;28;20031;-78
2022/04/23 10:48:30;;;;;;;8.05;3.65;;;;;;;16.77;45.39;99021.13;5117969;28;20473;-77
2022/04/23 10:50:59;;;;;;;6.90;3.83;;;;;;;16.87;44.81;99042.03;5096313;28;20389;-77
2022/04/23 10:53:51;;;;;;;6.85;3.42;;;;;;;17.16;44.10;99025.81;5116936;28;20096;-77
2022/04/23 10:56:18;;;;;;;8.05;3.95;;;;;;;16.89;44.81;99018.88;5105655;28;20046;-76
2022/04/23 10:58:44;;;;;;;7.53;3.95;;;;;;;16.72;45.72;99018.44;5098095;28;20023;-76
2022/04/23 11:01:23;;;;;;;7.78;3.80;;;;;;;16.43;45.72;99025.59;5116383;28;20099;-77
2022/04/23 11:04:06;;;;;;;8.23;4.22;;;;;;;16.61;45.47;99030.44;5117084;28;20100;-76
2022/04/23 11:12:30;;;;;;;8.50;4.32;;;;;;;16.98;44.81;99006.34;5116605;28;20466;-76
2022/04/23 11:14:56;;;;;;;8.02;4.25;;;;;;;16.98;44.48;99021.84;5116354;28;20035;-76
2022/04/23 11:17:23;;;;;;;;;;;;;;;16.80;44.86;99019.78;5116885;28;20038;-77
2022/04/23 11:19:52;;;;;;;9.77;4.40;;;;;;;16.92;44.82;99012.91;5116127;28;19907;-76
2022/04/23 11:22:19;;;;;;;9.07;3.97;;;;;;;16.79;44.70;99013.50;5116353;28;20031;-76
2022/04/23 11:24:46;;;;;;;8.90;4.35;;;;;;;16.69;45.18;99008.09;5098267;28;20027;-77
2022/04/23 11:27:26;;;;;;;10.13;4.53;;;;;;;16.75;44.59;99020.59;5116916;28;20042;-77
2022/04/23 11:29:52;;;;;;;8.20;4.25;;;;;;;16.84;44.76;99009.97;5118694;28;20051;-77
2022/04/23 11:32:24;;;;;;;;;;;;;;;17.16;43.84;98995.88;5118565;28;20024;-77
2022/04/23 11:35:02;;;;;;;8.35;4.20;;;;;;;17.29;42.85;99022.47;5117405;28;19912;-77
2022/04/23 11:37:29;;;;;;;8.27;4.25;;;;;;;17.23;43.26;99012.69;5116518;28;20035;-76
2022/04/23 11:40:12;;;;;;;8.63;4.50;;;;;;;17.21;43.31;99010.25;5116143;28;20114;-77
2022/04/23 11:42:45;;;;;;;8.40;3.80;;;;;;;17.55;42.76;98995.88;5097846;28;20097;-77
2022/04/23 11:45:13;;;;;;;10.60;4.88;;;;;;;17.46;43.24;99013.91;5115724;28;20074;-77
2022/04/23 11:47:38;;;;;;;8.50;4.47;;;;;;;17.47;43.04;98996.47;5115456;28;20031;-77
2022/04/23 11:50:14;;;;;;;;;;;;;;;17.55;42.59;98993.97;5116147;28;20323;-77
2022/04/23 11:52:44;;;;;;;9.15;4.60;;;;;;;17.60;42.17;98988.44;5115099;28;19912;-76